Time;durP1;ratioP1;P1;durP2;ratioP2;P2;SDS_P1;SDS_P2;PMS_P1;PMS_P2;Temp;Humidity;BMP_temperature;BMP_pressure;BME280_temperature;BME280_humidity;BME280_pressure;Samples;Min_cycle;Max_cycle;Signal;HPM_P1;HPM_P2
2022/05/04 00:00:03;;;;;;;2.58;1.88;;;;;;;;;;5053710;28;20041;-49
2022/05/04 00:02:29;;;;;;;2.72;1.60;;;;;;;;;;5052895;28;20133;-50
2022/05/04 00:04:55;;;;;;;2.15;1.63;;;;;;;;;;5053029;28;20103;-49
2022/05/04 00:07:21;;;;;;;2.72;1.58;;;;;;;;;;5052255;28;20017;-50
2022/05/04 00:09:46;;;;;;;2.00;1.60;;;;;;;;;;5053112;28;20627;-48
2022/05/04 00:12:12;;;;;;;2.45;1.90;;;;;;;;;;5053825;28;20028;-49
2022/05/04 00:14:38;;;;;;;2.00;1.52;;;;;;;;;;5052821;28;20029;-51
2022/05/04 00:17:05;;;;;;;3.90;1.90;;;;;;;;;;5053439;28;20112;-52
2022/05/04 00:19:31;;;;;;;2.50;1.45;;;;;;;;;;5052617;28;20033;-49
2022/05/04 00:21:57;;;;;;;2.05;1.80;;;;;;;;;;5053593;28;20050;-52
2022/05/04 00:24:22;;;;;;;2.22;1.80;;;;;;;;;;5053675;28;20033;-51
2022/05/04 00:26:48;;;;;;;1.75;1.50;;;;;;;;;;5052573;28;20048;-51
2022/05/04 00:29:14;;;;;;;2.03;1.60;;;;;;;;;;5053004;28;20397;-49
2022/05/04 00:31:40;;;;;;;2.00;1.45;;;;;;;;;;5052433;28;20025;-51
2022/05/04 00:34:07;;;;;;;2.08;1.58;;;;;;;;;;5052464;28;20100;-49
2022/05/04 00:36:33;;;;;;;1.73;1.40;;;;;;;;;;5051914;28;20033;-48
2022/05/04 00:38:59;;;;;;;2.17;1.23;;;;;;;;;;5052589;28;20482;-49
2022/05/04 00:41:25;;;;;;;1.50;1.40;;;;;;;;;;5052326;28;20078;-53
2022/05/04 00:43:52;;;;;;;1.85;1.60;;;;;;;;;;5052512;28;20466;-48
2022/05/04 00:46:18;;;;;;;1.95;1.50;;;;;;;;;;5053129;28;20021;-49
2022/05/04 00:48:44;;;;;;;1.80;1.50;;;;;;;;;;5051910;28;20033;-48
2022/05/04 00:51:10;;;;;;;1.83;1.50;;;;;;;;;;5052688;28;20037;-48
2022/05/04 00:53:40;;;;;;;2.90;1.80;;;;;;;;;;5051961;28;20107;-49
2022/05/04 00:56:08;;;;;;;1.65;1.35;;;;;;;;;;5052815;28;20470;-49
2022/05/04 01:01:20;;;;;;;2.13;1.70;;;;;;;;;;5052284;28;20059;-50
2022/05/04 01:03:46;;;;;;;2.47;1.83;;;;;;;;;;5050681;28;20101;-48
2022/05/04 01:06:12;;;;;;;1.85;1.52;;;;;;;;;;5051446;28;20053;-49
2022/05/04 01:08:38;;;;;;;1.85;1.45;;;;;;;;;;5051725;28;20099;-51
2022/05/04 01:11:04;;;;;;;2.10;1.73;;;;;;;;;;5052662;28;20458;-51
2022/05/04 01:13:31;;;;;;;2.15;1.30;;;;;;;;;;5051824;28;20021;-53
2022/05/04 01:15:57;;;;;;;1.95;1.20;;;;;;;;;;5052641;28;20115;-50
2022/05/04 01:18:23;;;;;;;2.42;1.52;;;;;;;;;;5051880;28;20155;-53
2022/05/04 01:20:49;;;;;;;2.65;1.70;;;;;;;;;;5051564;28;20624;-50
2022/05/04 01:23:17;;;;;;;1.55;1.33;;;;;;;;;;5052406;28;20032;-51
2022/05/04 01:25:43;;;;;;;2.22;1.70;;;;;;;;;;5051156;28;20130;-48
2022/05/04 01:28:09;;;;;;;1.73;1.35;;;;;;;;;;5051630;28;20128;-49
2022/05/04 01:30:35;;;;;;;2.55;1.55;;;;;;;;;;5051397;28;20029;-50
2022/05/04 01:33:01;;;;;;;1.85;1.60;;;;;;;;;;5052267;28;20447;-49
2022/05/04 01:38:03;;;;;;;2.28;1.60;;;;;;;;;;2510845;22;20053;-48
2022/05/04 01:40:29;;;;;;;3.50;2.22;;;;;;;;;;5032600;28;20052;-50
2022/05/04 01:42:55;;;;;;;1.77;1.25;;;;;;;;;;5030460;28;20093;-49
2022/05/04 01:45:22;;;;;;;1.40;1.27;;;;;;;;;;5020274;28;20473;-49
2022/05/04 01:47:49;;;;;;;2.17;1.70;;;;;;;;;;5032086;28;20543;-48
2022/05/04 01:50:15;;;;;;;1.67;1.48;;;;;;;;;;5011703;28;20069;-48
2022/05/04 01:52:41;;;;;;;2.30;1.70;;;;;;;;;;5012780;28;20022;-49
2022/05/04 01:55:07;;;;;;;1.50;1.40;;;;;;;;;;5020514;28;20032;-48
2022/05/04 01:57:33;;;;;;;1.60;1.50;;;;;;;;;;5032734;28;20470;-48
2022/05/04 01:59:59;;;;;;;1.90;1.67;;;;;;;;;;5031517;28;20051;-51
2022/05/04 02:02:26;;;;;;;1.50;1.30;;;;;;;;;;5031186;28;20049;-48
2022/05/04 02:04:53;;;;;;;1.52;1.40;;;;;;;;;;5031790;28;20018;-49
2022/05/04 02:07:19;;;;;;;2.17;1.45;;;;;;;;;;5031591;28;20381;-49
2022/05/04 02:09:46;;;;;;;1.98;1.65;;;;;;;;;;5032031;28;20045;-49
2022/05/04 02:12:12;;;;;;;1.75;1.45;;;;;;;;;;5031005;28;20025;-49
2022/05/04 02:14:38;;;;;;;1.75;1.40;;;;;;;;;;5031677;28;20063;-48
2022/05/04 02:17:05;;;;;;;3.13;1.50;;;;;;;;;;5031524;28;20022;-53
2022/05/04 02:19:31;;;;;;;2.05;1.30;;;;;;;;;;5031904;28;20029;-48
2022/05/04 02:21:57;;;;;;;1.70;1.60;;;;;;;;;;5031568;28;20033;-48
2022/05/04 02:24:23;;;;;;;1.55;1.45;;;;;;;;;;5030974;28;20615;-51
2022/05/04 02:26:49;;;;;;;1.90;1.40;;;;;;;;;;5031529;28;20033;-50
2022/05/04 02:29:15;;;;;;;2.65;1.88;;;;;;;;;;5030551;28;20026;-50
2022/05/04 02:31:41;;;;;;;1.48;1.30;;;;;;;;;;5032083;28;20596;-49
2022/05/04 02:34:07;;;;;;;1.50;1.40;;;;;;;;;;5031271;28;20044;-48
2022/05/04 02:39:17;;;;;;;1.92;1.52;;;;;;;;;;5030816;28;20060;-50
2022/05/04 02:41:43;;;;;;;1.75;1.40;;;;;;;;;;5031450;28;20381;-49
2022/05/04 02:44:09;;;;;;;1.73;1.50;;;;;;;;;;5030995;28;20032;-51
2022/05/04 02:46:36;;;;;;;2.15;1.88;;;;;;;;;;5031189;28;20030;-53
2022/05/04 02:49:02;;;;;;;2.20;1.90;;;;;;;;;;5031681;28;20083;-54
2022/05/04 02:51:29;;;;;;;1.77;1.60;;;;;;;;;;5029865;28;20029;-51
2022/05/04 02:53:55;;;;;;;2.15;1.38;;;;;;;;;;5031413;28;20454;-48
2022/05/04 02:56:21;;;;;;;2.25;1.73;;;;;;;;;;5030300;28;20025;-52
2022/05/04 02:58:51;;;;;;;2.67;2.00;;;;;;;;;;5031857;28;20044;-48
2022/05/04 03:04:04;;;;;;;1.88;1.58;;;;;;;;;;5035410;28;20072;-50
2022/05/04 03:06:30;;;;;;;3.10;1.70;;;;;;;;;;5034251;28;20485;-53
2022/05/04 03:08:56;;;;;;;1.60;1.48;;;;;;;;;;5034914;28;20398;-49
2022/05/04 03:14:07;;;;;;;2.10;1.40;;;;;;;;;;5034566;28;20413;-54
2022/05/04 03:16:34;;;;;;;1.92;1.60;;;;;;;;;;5034214;28;20102;-48
2022/05/04 03:19:00;;;;;;;1.75;1.48;;;;;;;;;;5034466;28;20029;-49
2022/05/04 03:21:26;;;;;;;2.40;2.20;;;;;;;;;;5033501;28;20809;-50
2022/05/04 03:23:52;;;;;;;2.08;1.50;;;;;;;;;;5034724;28;20231;-49
2022/05/04 03:26:18;;;;;;;2.15;1.67;;;;;;;;;;5033672;28;20537;-50
2022/05/04 03:28:45;;;;;;;2.78;1.70;;;;;;;;;;5034420;28;20039;-51
2022/05/04 03:31:11;;;;;;;1.83;1.45;;;;;;;;;;5033326;28;20461;-52
2022/05/04 03:33:37;;;;;;;2.17;1.60;;;;;;;;;;5034412;28;20089;-53
2022/05/04 03:36:03;;;;;;;1.90;1.65;;;;;;;;;;5033299;28;20033;-48
2022/05/04 03:38:29;;;;;;;1.70;1.50;;;;;;;;;;5033660;28;20042;-48
2022/05/04 03:40:55;;;;;;;1.40;1.30;;;;;;;;;;5034478;28;20115;-50
2022/05/04 03:43:21;;;;;;;1.98;1.60;;;;;;;;;;5033561;28;20470;-51
2022/05/04 03:45:47;;;;;;;1.90;1.52;;;;;;;;;;5033999;28;20026;-47
2022/05/04 03:48:13;;;;;;;1.90;1.70;;;;;;;;;;5033950;28;20036;-48
2022/05/04 03:50:39;;;;;;;2.15;1.70;;;;;;;;;;5034106;28;20090;-49
2022/05/04 03:53:05;;;;;;;1.98;1.70;;;;;;;;;;5029991;28;20091;-51
2022/05/04 03:55:33;;;;;;;2.33;2.08;;;;;;;;;;5033235;28;20021;-48
2022/05/04 03:57:59;;;;;;;2.00;1.35;;;;;;;;;;5034311;28;20018;-52
2022/05/04 04:00:25;;;;;;;1.83;1.60;;;;;;;;;;5033396;28;20036;-51
2022/05/04 04:02:51;;;;;;;2.10;1.80;;;;;;;;;;5033835;28;20033;-48
2022/05/04 04:05:17;;;;;;;2.00;1.63;;;;;;;;;;5033317;28;20036;-51
2022/05/04 04:07:43;;;;;;;2.05;1.77;;;;;;;;;;5033629;28;20036;-48
2022/05/04 04:10:10;;;;;;;1.80;1.55;;;;;;;;;;5034117;28;20064;-54
2022/05/04 04:12:36;;;;;;;1.67;1.55;;;;;;;;;;5033320;28;20119;-49
2022/05/04 04:15:02;;;;;;;2.42;1.70;;;;;;;;;;5033081;28;20064;-52
2022/05/04 04:17:29;;;;;;;2.25;1.83;;;;;;;;;;5032653;28;20036;-49
2022/05/04 04:22:40;;;;;;;1.70;1.50;;;;;;;;;;5033822;28;20040;-48
2022/05/04 04:25:06;;;;;;;2.33;1.58;;;;;;;;;;5033356;28;20021;-51
2022/05/04 04:27:34;;;;;;;2.17;1.55;;;;;;;;;;5032744;28;20044;-51
2022/05/04 04:30:00;;;;;;;2.20;1.65;;;;;;;;;;5033650;28;20154;-53
2022/05/04 04:32:27;;;;;;;1.80;1.52;;;;;;;;;;5032671;28;20101;-49
2022/05/04 04:34:53;;;;;;;1.95;1.73;;;;;;;;;;5033340;28;20037;-51
2022/05/04 04:37:19;;;;;;;2.25;1.67;;;;;;;;;;5032419;28;20044;-49
2022/05/04 04:39:45;;;;;;;2.00;1.42;;;;;;;;;;5033095;28;20054;-50
2022/05/04 04:42:12;;;;;;;1.70;1.35;;;;;;;;;;5033253;28;20036;-55
2022/05/04 04:44:38;;;;;;;1.88;1.58;;;;;;;;;;5032562;28;20029;-53
2022/05/04 04:47:05;;;;;;;3.63;1.85;;;;;;;;;;5033075;28;20025;-50
2022/05/04 04:49:31;;;;;;;2.80;1.98;;;;;;;;;;5031010;28;20065;-51
2022/05/04 04:51:57;;;;;;;2.40;1.50;;;;;;;;;;5032648;28;20029;-52
2022/05/04 04:54:23;;;;;;;2.20;1.65;;;;;;;;;;5032430;28;20029;-50
2022/05/04 04:56:49;;;;;;;2.78;1.90;;;;;;;;;;5032887;28;20068;-53
2022/05/04 04:59:15;;;;;;;3.50;2.15;;;;;;;;;;5032428;28;20029;-55
2022/05/04 05:01:41;;;;;;;2.58;1.85;;;;;;;;;;5032444;28;20029;-52
2022/05/04 05:04:07;;;;;;;2.03;1.60;;;;;;;;;;5032605;28;20386;-51
2022/05/04 05:06:33;;;;;;;2.50;2.03;;;;;;;;;;5031519;28;20026;-51
2022/05/04 05:08:59;;;;;;;2.65;1.80;;;;;;;;;;5032836;28;20025;-51
2022/05/04 05:11:25;;;;;;;1.60;1.42;;;;;;;;;;5025651;28;20477;-51
2022/05/04 05:16:36;;;;;;;2.35;1.65;;;;;;;;;;5031985;28;20029;-48
2022/05/04 05:19:02;;;;;;;2.95;2.03;;;;;;;;;;5032400;28;20351;-51
2022/05/04 05:21:28;;;;;;;2.50;1.80;;;;;;;;;;5031651;28;20035;-49
2022/05/04 05:23:54;;;;;;;2.55;1.67;;;;;;;;;;5032515;28;20031;-52
2022/05/04 05:26:20;;;;;;;3.83;1.83;;;;;;;;;;5031623;28;20017;-54
2022/05/04 05:28:47;;;;;;;3.65;2.20;;;;;;;;;;5032813;28;20141;-50
2022/05/04 05:31:15;;;;;;;4.53;2.50;;;;;;;;;;5032857;28;20025;-51
2022/05/04 05:33:45;;;;;;;3.00;2.25;;;;;;;;;;5032126;28;20486;-48
2022/05/04 05:36:11;;;;;;;4.18;2.15;;;;;;;;;;5032827;28;20021;-51
2022/05/04 05:38:37;;;;;;;3.45;1.85;;;;;;;;;;5030500;28;20044;-49
2022/05/04 05:41:03;;;;;;;3.28;2.15;;;;;;;;;;5032298;28;20037;-52
2022/05/04 05:43:29;;;;;;;6.22;1.83;;;;;;;;;;5032192;28;20080;-53
2022/05/04 05:45:55;;;;;;;5.63;1.73;;;;;;;;;;5032579;28;20100;-50
2022/05/04 05:48:21;;;;;;;4.85;1.98;;;;;;;;;;5032201;28;20057;-50
2022/05/04 05:50:47;;;;;;;5.20;1.73;;;;;;;;;;5032261;28;20453;-49
2022/05/04 05:53:17;;;;;;;4.28;1.70;;;;;;;;;;5032281;28;20029;-48
2022/05/04 05:55:42;;;;;;;4.20;2.35;;;;;;;;;;5032310;28;20053;-53
2022/05/04 05:58:10;;;;;;;4.57;2.13;;;;;;;;;;5032260;28;20060;-48
2022/05/04 06:00:36;;;;;;;3.13;2.05;;;;;;;;;;5031788;28;20042;-47
2022/05/04 06:03:02;;;;;;;6.43;2.42;;;;;;;;;;5032185;28;20107;-49
2022/05/04 06:05:28;;;;;;;5.13;2.60;;;;;;;;;;5031648;28;20075;-48
2022/05/04 06:07:54;;;;;;;3.38;2.50;;;;;;;;;;5032185;28;20037;-49
2022/05/04 06:10:20;;;;;;;9.43;2.65;;;;;;;;;;5031893;28;20030;-47
2022/05/04 06:12:46;;;;;;;6.68;2.65;;;;;;;;;;5031985;28;20095;-48
2022/05/04 06:15:14;;;;;;;6.35;2.97;;;;;;;;;;5032273;28;20025;-47
2022/05/04 06:17:41;;;;;;;4.80;2.45;;;;;;;;;;5030776;28;20042;-47
2022/05/04 06:20:07;;;;;;;6.95;2.75;;;;;;;;;;5031862;28;20355;-46
2022/05/04 06:22:34;;;;;;;3.88;2.97;;;;;;;;;;5031765;28;20033;-48
2022/05/04 06:25:00;;;;;;;8.50;3.00;;;;;;;;;;5032271;28;20108;-47
2022/05/04 06:27:29;;;;;;;5.30;3.13;;;;;;;;;;5031686;28;20121;-50
2022/05/04 06:35:24;;;;;;;9.07;2.50;;;;;;;;;;5031166;28;20036;-46
2022/05/04 06:37:50;;;;;;;4.47;3.05;;;;;;;;;;5034054;28;20521;-51
2022/05/04 06:40:16;;;;;;;5.30;2.53;;;;;;;;;;5036034;28;20140;-51
2022/05/04 06:42:42;;;;;;;5.63;2.72;;;;;;;;;;5030015;28;20044;-50
2022/05/04 06:45:08;;;;;;;4.50;2.35;;;;;;;;;;5023807;28;20025;-47
2022/05/04 06:47:34;;;;;;;6.13;2.47;;;;;;;;;;5034831;28;20029;-50
2022/05/04 06:50:00;;;;;;;7.38;2.53;;;;;;;;;;5035728;28;20040;-52
2022/05/04 06:52:26;;;;;;;3.95;2.70;;;;;;;;;;5034656;28;20030;-47
2022/05/04 06:54:53;;;;;;;3.72;2.33;;;;;;;;;;5035684;28;20033;-48
2022/05/04 06:57:19;;;;;;;5.93;2.50;;;;;;;;;;5034677;28;20032;-53
2022/05/04 06:59:45;;;;;;;7.15;2.22;;;;;;;;;;5030536;28;20029;-48
2022/05/04 07:02:11;;;;;;;5.93;2.67;;;;;;;;;;5026590;28;20378;-47
2022/05/04 07:04:37;;;;;;;5.32;2.40;;;;;;;;;;5026421;28;20026;-46
2022/05/04 07:07:04;;;;;;;2.45;1.95;;;;;;;;;;5024262;28;20025;-51
2022/05/04 07:09:30;;;;;;;4.20;2.08;;;;;;;;;;5027216;28;20034;-49
2022/05/04 07:11:56;;;;;;;3.75;2.42;;;;;;;;;;5027797;28;20029;-47
2022/05/04 07:14:22;;;;;;;5.53;2.40;;;;;;;;;;5024371;28;20022;-51
2022/05/04 07:16:48;;;;;;;3.78;2.20;;;;;;;;;;5028249;28;20030;-47
2022/05/04 07:19:15;;;;;;;2.53;2.15;;;;;;;;;;5027386;28;20033;-49
2022/05/04 07:21:41;;;;;;;6.50;2.30;;;;;;;;;;5030619;28;20037;-51
2022/05/04 07:24:07;;;;;;;4.78;2.50;;;;;;;;;;5028281;28;20072;-47
2022/05/04 07:26:33;;;;;;;4.20;2.22;;;;;;;;;;5023317;28;20504;-47
2022/05/04 07:28:59;;;;;;;4.13;2.45;;;;;;;;;;5027955;28;20025;-49
2022/05/04 07:31:25;;;;;;;2.42;1.90;;;;;;;;;;5024427;28;20385;-47
2022/05/04 07:33:51;;;;;;;7.20;2.75;;;;;;;;;;5025359;28;20097;-47
2022/05/04 07:36:17;;;;;;;3.65;1.70;;;;;;;;;;5025202;28;20022;-51
2022/05/04 07:38:43;;;;;;;5.88;2.67;;;;;;;;;;5025802;28;20037;-47
2022/05/04 07:43:54;;;;;;;6.18;2.55;;;;;;;;;;5024084;28;20386;-48
2022/05/04 07:46:20;;;;;;;3.42;2.15;;;;;;;;;;5015235;28;20022;-47
2022/05/04 07:48:46;;;;;;;8.57;2.92;;;;;;;;;;5023888;28;20029;-47
2022/05/04 07:51:13;;;;;;;3.33;2.15;;;;;;;;;;5033409;28;20030;-48
2022/05/04 07:53:39;;;;;;;2.85;2.15;;;;;;;;;;5018210;28;20022;-47
2022/05/04 07:56:06;;;;;;;2.88;2.20;;;;;;;;;;5029295;28;20035;-47
2022/05/04 07:58:32;;;;;;;3.53;2.65;;;;;;;;;;5033007;28;20397;-47
2022/05/04 08:06:27;;;;;;;3.67;1.83;;;;;;;;;;5032646;28;20516;-47
2022/05/04 08:08:53;;;;;;;4.50;2.03;;;;;;;;;;5033317;28;20548;-50
2022/05/04 08:11:19;;;;;;;3.00;1.92;;;;;;;;;;5032538;28;20443;-47
2022/05/04 08:13:45;;;;;;;3.10;2.08;;;;;;;;;;5032684;28;20104;-47
2022/05/04 08:16:13;;;;;;;2.83;1.90;;;;;;;;;;5033944;28;20029;-50
2022/05/04 08:18:41;;;;;;;3.40;2.55;;;;;;;;;;5032575;28;20034;-51
2022/05/04 08:21:08;;;;;;;6.28;1.80;;;;;;;;;;5033129;28;20029;-52
2022/05/04 08:23:35;;;;;;;1.88;1.63;;;;;;;;;;5032151;28;20497;-49
2022/05/04 08:26:01;;;;;;;2.90;1.85;;;;;;;;;;5033426;28;20477;-51
2022/05/04 08:28:28;;;;;;;2.95;1.98;;;;;;;;;;5032440;28;20021;-50
2022/05/04 08:30:54;;;;;;;2.88;1.70;;;;;;;;;;5033059;28;20535;-47
2022/05/04 08:33:20;;;;;;;2.47;2.00;;;;;;;;;;5033259;28;20382;-51
2022/05/04 08:35:46;;;;;;;3.42;2.00;;;;;;;;;;5032375;28;20118;-48
2022/05/04 08:38:12;;;;;;;3.65;1.90;;;;;;;;;;5032583;28;20633;-51
2022/05/04 08:40:39;;;;;;;2.78;1.70;;;;;;;;;;5031622;28;20060;-48
2022/05/04 08:43:07;;;;;;;2.17;1.92;;;;;;;;;;5032862;28;20109;-47
2022/05/04 08:45:36;;;;;;;2.28;1.77;;;;;;;;;;5032109;28;20104;-48
2022/05/04 08:48:04;;;;;;;4.43;1.70;;;;;;;;;;5032880;28;20047;-52
2022/05/04 08:50:31;;;;;;;5.03;2.00;;;;;;;;;;5031828;28;20069;-50
2022/05/04 08:52:57;;;;;;;2.70;1.70;;;;;;;;;;5023207;28;20029;-48
2022/05/04 08:55:24;;;;;;;2.25;1.50;;;;;;;;;;5012640;28;20021;-51
2022/05/04 08:57:51;;;;;;;2.58;1.92;;;;;;;;;;5018762;28;20060;-48
2022/05/04 09:00:17;;;;;;;2.70;2.00;;;;;;;;;;5032226;28;20099;-48
2022/05/04 09:02:43;;;;;;;2.72;1.60;;;;;;;;;;5031680;28;20026;-48
2022/05/04 09:05:17;;;;;;;1.90;1.55;;;;;;;;;;5032374;28;20029;-50
2022/05/04 09:07:43;;;;;;;2.85;1.70;;;;;;;;;;5031736;28;20474;-48
2022/05/04 09:10:16;;;;;;;2.63;1.83;;;;;;;;;;5031894;28;20390;-48
2022/05/04 09:12:43;;;;;;;2.92;1.67;;;;;;;;;;5031562;28;20040;-47
2022/05/04 09:15:19;;;;;;;1.50;1.35;;;;;;;;;;5032220;28;20029;-49
2022/05/04 09:17:45;;;;;;;2.05;1.58;;;;;;;;;;5031154;28;20029;-48
2022/05/04 09:22:56;;;;;;;1.85;1.45;;;;;;;;;;5032477;28;20068;-46
2022/05/04 09:25:24;;;;;;;3.47;1.88;;;;;;;;;;5032480;28;20057;-46
2022/05/04 09:27:51;;;;;;;1.75;1.50;;;;;;;;;;5032194;28;20036;-47
2022/05/04 09:30:23;;;;;;;3.00;1.67;;;;;;;;;;5032736;28;20453;-48
2022/05/04 09:32:49;;;;;;;2.50;1.92;;;;;;;;;;5031722;28;20021;-46
2022/05/04 09:35:16;;;;;;;2.60;1.70;;;;;;;;;;5032296;28;20034;-47
2022/05/04 09:46:05;;;;;;;2.38;1.63;;;;;;;;;;5032436;28;20063;-48
2022/05/04 09:48:34;;;;;;;2.55;1.80;;;;;;;;;;5031516;28;20033;-47
2022/05/04 09:51:09;;;;;;;2.35;1.40;;;;;;;;;;5032191;28;20045;-49
2022/05/04 09:53:36;;;;;;;1.88;1.50;;;;;;;;;;5029370;28;20036;-46
2022/05/04 09:56:03;;;;;;;2.60;1.38;;;;;;;;;;5032296;28;20048;-47
2022/05/04 09:58:30;;;;;;;2.55;1.67;;;;;;;;;;5031727;28;20376;-47
2022/05/04 10:00:57;;;;;;;2.05;1.55;;;;;;;;;;5032201;28;20030;-47
2022/05/04 10:03:24;;;;;;;2.22;1.80;;;;;;;;;;5031597;28;20053;-47
2022/05/04 10:05:50;;;;;;;1.60;1.50;;;;;;;;;;5031469;28;20033;-47
2022/05/04 10:08:16;;;;;;;2.17;1.50;;;;;;;;;;5031781;28;20029;-48
2022/05/04 10:10:43;;;;;;;2.00;1.80;;;;;;;;;;5031046;28;20463;-46
2022/05/04 10:13:09;;;;;;;2.28;1.70;;;;;;;;;;5034307;28;20382;-47
2022/05/04 10:15:37;;;;;;;2.65;1.90;;;;;;;;;;5035387;28;20041;-47
2022/05/04 10:18:04;;;;;;;2.10;1.58;;;;;;;;;;5036152;28;20025;-50
2022/05/04 10:20:37;;;;;;;2.58;1.92;;;;;;;;;;5035537;28;20048;-48
2022/05/04 10:23:08;;;;;;;3.53;2.13;;;;;;;;;;5035676;28;20021;-51
2022/05/04 10:25:35;;;;;;;2.60;1.40;;;;;;;;;;5015750;28;20026;-50
2022/05/04 10:28:08;;;;;;;2.25;1.77;;;;;;;;;;5016380;28;20022;-53
2022/05/04 10:30:34;;;;;;;3.05;1.88;;;;;;;;;;5015745;28;20026;-48
2022/05/04 10:33:08;;;;;;;3.45;1.50;;;;;;;;;;5030669;28;20026;-53
2022/05/04 10:35:34;;;;;;;2.88;1.70;;;;;;;;;;5034778;28;20053;-52
2022/05/04 10:38:00;;;;;;;2.55;1.70;;;;;;;;;;5034897;28;20025;-50
2022/05/04 10:40:38;;;;;;;3.25;1.60;;;;;;;;;;5033964;28;20037;-51
2022/05/04 10:43:09;;;;;;;3.03;1.58;;;;;;;;;;5034695;28;20541;-53
2022/05/04 10:45:39;;;;;;;2.38;1.63;;;;;;;;;;5013451;28;20383;-52
2022/05/04 10:48:21;;;;;;;3.17;1.75;;;;;;;;;;5015217;28;20348;-48
2022/05/04 10:50:51;;;;;;;3.75;1.50;;;;;;;;;;5014762;28;20222;-47
2022/05/04 10:53:20;;;;;;;3.53;1.58;;;;;;;;;;5031323;28;20044;-47
2022/05/04 10:56:01;;;;;;;3.30;1.60;;;;;;;;;;5034225;28;20032;-48
2022/05/04 10:58:47;;;;;;;1.88;1.45;;;;;;;;;;5035041;28;20017;-55
2022/05/04 11:01:17;;;;;;;3.30;1.65;;;;;;;;;;5034763;28;20091;-49
2022/05/04 11:03:51;;;;;;;3.70;1.90;;;;;;;;;;5033340;28;20376;-47
2022/05/04 11:06:27;;;;;;;1.98;1.40;;;;;;;;;;5033705;28;20167;-48
2022/05/04 11:08:56;;;;;;;3.92;1.80;;;;;;;;;;5034302;28;20037;-50
2022/05/04 11:11:22;;;;;;;2.75;1.67;;;;;;;;;;5033193;28;20041;-50
2022/05/04 11:13:49;;;;;;;3.45;1.90;;;;;;;;;;5033235;28;20649;-49
2022/05/04 11:16:15;;;;;;;2.47;1.45;;;;;;;;;;5034534;28;20026;-51
2022/05/04 11:18:41;;;;;;;2.13;1.60;;;;;;;;;;5033640;28;20370;-49
2022/05/04 11:21:14;;;;;;;4.63;1.63;;;;;;;;;;5034451;28;20030;-49
2022/05/04 11:23:45;;;;;;;3.35;1.40;;;;;;;;;;5033160;28;20037;-48
2022/05/04 11:26:19;;;;;;;4.35;1.98;;;;;;;;;;5034631;28;20028;-49
2022/05/04 11:28:45;;;;;;;2.10;1.70;;;;;;;;;;5033521;28;20021;-50
2022/05/04 11:31:11;;;;;;;2.70;1.80;;;;;;;;;;5034390;28;20072;-48
2022/05/04 11:33:37;;;;;;;2.90;1.58;;;;;;;;;;5032954;28;20022;-47
2022/05/04 11:36:05;;;;;;;4.45;1.48;;;;;;;;;;5034447;28;20108;-49
2022/05/04 11:38:31;;;;;;;4.28;1.65;;;;;;;;;;5033398;28;20086;-53
2022/05/04 11:40:57;;;;;;;1.92;1.48;;;;;;;;;;5031976;28;20038;-49
2022/05/04 11:43:25;;;;;;;5.60;1.77;;;;;;;;;;5033015;28;20393;-48
2022/05/04 11:45:51;;;;;;;2.13;1.50;;;;;;;;;;5028661;28;20694;-47
2022/05/04 11:48:21;;;;;;;5.15;1.40;;;;;;;;;;5033812;28;20026;-47
2022/05/04 11:50:47;;;;;;;3.75;1.67;;;;;;;;;;5033244;28;20441;-49
2022/05/04 11:53:14;;;;;;;2.22;1.40;;;;;;;;;;5022226;28;20475;-49
2022/05/04 11:55:40;;;;;;;2.08;1.55;;;;;;;;;;5024438;28;20478;-49
2022/05/04 11:58:10;;;;;;;2.85;1.55;;;;;;;;;;5033660;28;20497;-47
2022/05/04 12:00:36;;;;;;;2.22;1.85;;;;;;;;;;5032647;28;20026;-49
2022/05/04 12:03:03;;;;;;;2.70;1.67;;;;;;;;;;5033587;28;20485;-50
2022/05/04 12:05:30;;;;;;;2.65;1.50;;;;;;;;;;5033437;28;20099;-52
2022/05/04 12:07:56;;;;;;;1.95;1.33;;;;;;;;;;5032313;28;20500;-48
2022/05/04 12:10:22;;;;;;;2.60;1.40;;;;;;;;;;5032611;28;20057;-52
2022/05/04 12:12:48;;;;;;;2.00;1.50;;;;;;;;;;5023302;28;20600;-49
2022/05/04 12:15:16;;;;;;;1.38;1.17;;;;;;;;;;5032803;28;20437;-50
2022/05/04 12:17:43;;;;;;;2.28;1.52;;;;;;;;;;5032534;28;20036;-47
2022/05/04 12:20:10;;;;;;;3.88;1.30;;;;;;;;;;5033159;28;20042;-51
2022/05/04 12:22:37;;;;;;;2.22;1.77;;;;;;;;;;5032191;28;20030;-47
2022/05/04 12:25:04;;;;;;;4.07;1.75;;;;;;;;;;5033630;28;20079;-52
2022/05/04 12:27:38;;;;;;;3.03;1.42;;;;;;;;;;5032813;28;20104;-54
2022/05/04 12:35:34;;;;;;;4.32;1.85;;;;;;;;;;5031852;28;20657;-48
2022/05/04 12:38:03;;;;;;;5.30;2.00;;;;;;;;;;5031974;28;20021;-51
2022/05/04 12:40:30;;;;;;;3.72;2.13;;;;;;;;;;5032539;28;20151;-54
2022/05/04 12:42:56;;;;;;;3.83;1.63;;;;;;;;;;5032214;28;20034;-51
2022/05/04 12:45:24;;;;;;;2.10;1.65;;;;;;;;;;5032450;28;20524;-48
2022/05/04 12:47:50;;;;;;;3.67;2.08;;;;;;;;;;5031819;28;20030;-47
2022/05/04 12:50:16;;;;;;;3.00;1.58;;;;;;;;;;5033009;28;20028;-53
2022/05/04 12:52:43;;;;;;;3.50;1.70;;;;;;;;;;5032432;28;20013;-47
2022/05/04 12:55:08;;;;;;;2.75;1.90;;;;;;;;;;5032449;28;20469;-48
2022/05/04 12:57:34;;;;;;;4.25;1.60;;;;;;;;;;5031889;28;20033;-48
2022/05/04 13:00:00;;;;;;;1.98;1.40;;;;;;;;;;5028457;28;20152;-48
2022/05/04 13:02:27;;;;;;;2.55;1.50;;;;;;;;;;5033578;28;20034;-52
2022/05/04 13:04:53;;;;;;;3.00;1.50;;;;;;;;;;5032966;28;20033;-47
2022/05/04 13:07:18;;;;;;;2.55;1.50;;;;;;;;;;5031145;28;20017;-48
2022/05/04 13:09:45;;;;;;;3.70;1.50;;;;;;;;;;5032026;28;20030;-50
2022/05/04 13:12:11;;;;;;;3.35;1.40;;;;;;;;;;5031638;28;20371;-48
2022/05/04 13:14:38;;;;;;;2.42;1.27;;;;;;;;;;5031995;28;20036;-47
2022/05/04 13:17:04;;;;;;;1.83;1.48;;;;;;;;;;5032596;28;20021;-48
2022/05/04 13:19:31;;;;;;;2.88;1.40;;;;;;;;;;5032091;28;20025;-48
2022/05/04 13:21:57;;;;;;;2.13;1.40;;;;;;;;;;5032815;28;20032;-47
2022/05/04 13:24:23;;;;;;;3.78;2.28;;;;;;;;;;5032523;28;20382;-51
2022/05/04 13:26:49;;;;;;;3.38;1.35;;;;;;;;;;5032205;28;20080;-47
2022/05/04 13:29:15;;;;;;;1.70;1.50;;;;;;;;;;5032052;28;20056;-48
2022/05/04 13:31:41;;;;;;;2.30;1.85;;;;;;;;;;5031335;28;20029;-51
2022/05/04 13:34:07;;;;;;;2.20;1.40;;;;;;;;;;5032464;28;20497;-47
2022/05/04 13:36:33;;;;;;;1.65;1.42;;;;;;;;;;5031695;28;20048;-48
2022/05/04 13:38:59;;;;;;;2.47;1.20;;;;;;;;;;5030513;28;20187;-50
2022/05/04 13:41:25;;;;;;;2.08;1.42;;;;;;;;;;5031513;28;20437;-47
2022/05/04 13:43:52;;;;;;;1.60;1.45;;;;;;;;;;5031729;28;20029;-50
2022/05/04 13:46:18;;;;;;;2.65;1.70;;;;;;;;;;5031387;28;20029;-48
2022/05/04 13:48:44;;;;;;;3.72;2.33;;;;;;;;;;5031387;28;20022;-48
2022/05/04 13:53:56;;;;;;;4.20;1.70;;;;;;;;;;5032213;28;20032;-50
2022/05/04 13:56:22;;;;;;;2.65;1.98;;;;;;;;;;5031955;28;20485;-47
2022/05/04 13:58:48;;;;;;;4.18;2.08;;;;;;;;;;5031476;28;20532;-45
2022/05/04 14:01:14;;;;;;;4.05;1.77;;;;;;;;;;5031900;28;20025;-51
2022/05/04 14:03:40;;;;;;;3.28;1.55;;;;;;;;;;5031205;28;20026;-49
2022/05/04 14:06:06;;;;;;;3.45;2.05;;;;;;;;;;5031637;28;20026;-46
2022/05/04 14:08:33;;;;;;;5.28;1.70;;;;;;;;;;5029628;28;20409;-52
2022/05/04 14:10:59;;;;;;;4.22;1.52;;;;;;;;;;5030140;28;20084;-47
2022/05/04 14:13:27;;;;;;;7.60;1.63;;;;;;;;;;5012163;28;20430;-48
2022/05/04 14:15:54;;;;;;;8.25;1.65;;;;;;;;;;5011837;28;20105;-49
2022/05/04 14:18:21;;;;;;;7.90;2.30;;;;;;;;;;5012409;28;20026;-49
2022/05/04 14:20:48;;;;;;;6.65;2.28;;;;;;;;;;5011520;28;20437;-48
2022/05/04 14:23:14;;;;;;;5.03;2.30;;;;;;;;;;5012191;28;20030;-49
2022/05/04 14:25:40;;;;;;;18.15;3.03;;;;;;;;;;5011322;28;20033;-51
2022/05/04 14:28:06;;;;;;;14.75;3.38;;;;;;;;;;5012345;28;20022;-46
2022/05/04 14:30:34;;;;;;;9.73;2.80;;;;;;;;;;5015510;28;20090;-46
2022/05/04 14:33:00;;;;;;;11.07;4.03;;;;;;;;;;5031605;28;20068;-50
2022/05/04 14:35:26;;;;;;;7.18;3.90;;;;;;;;;;5031605;28;20026;-49
2022/05/04 14:37:52;;;;;;;5.88;3.65;;;;;;;;;;5030482;28;20040;-52
2022/05/04 14:40:18;;;;;;;7.80;4.00;;;;;;;;;;5029859;28;20054;-51
2022/05/04 14:42:45;;;;;;;6.82;3.80;;;;;;;;;;5029790;28;20037;-51
2022/05/04 14:45:11;;;;;;;6.65;3.85;;;;;;;;;;5031265;28;20028;-47
2022/05/04 14:47:38;;;;;;;10.95;4.07;;;;;;;;;;5030350;28;20067;-48
2022/05/04 14:50:04;;;;;;;8.27;3.60;;;;;;;;;;5031250;28;20027;-46
2022/05/04 14:52:30;;;;;;;10.38;4.90;;;;;;;;;;5025018;28;20028;-53
2022/05/04 14:54:56;;;;;;;8.85;3.90;;;;;;;;;;5011693;28;20018;-47
2022/05/04 14:57:23;;;;;;;7.57;3.40;;;;;;;;;;5011821;28;20471;-51
2022/05/04 14:59:49;;;;;;;7.78;4.00;;;;;;;;;;5030415;28;20040;-49
2022/05/04 15:02:15;;;;;;;11.90;4.22;;;;;;;;;;5035208;28;20431;-52
2022/05/04 15:07:26;;;;;;;5.15;3.85;;;;;;;;;;5035248;28;20028;-50
2022/05/04 15:09:52;;;;;;;5.88;3.75;;;;;;;;;;5034392;28;20080;-49
2022/05/04 15:12:18;;;;;;;7.10;3.75;;;;;;;;;;5034566;28;20091;-49
2022/05/04 15:14:44;;;;;;;6.25;3.30;;;;;;;;;;5034593;28;20056;-52
2022/05/04 15:17:10;;;;;;;4.88;3.50;;;;;;;;;;5034774;28;20462;-48
2022/05/04 15:19:36;;;;;;;6.38;3.53;;;;;;;;;;5032945;28;20378;-48
2022/05/04 15:22:03;;;;;;;5.47;3.15;;;;;;;;;;5034993;28;20018;-51
2022/05/04 15:24:29;;;;;;;5.35;3.95;;;;;;;;;;5034462;28;20030;-51
2022/05/04 15:26:55;;;;;;;7.30;3.80;;;;;;;;;;5034696;28;20108;-49
2022/05/04 15:29:21;;;;;;;8.00;3.78;;;;;;;;;;5034665;28;20037;-48
2022/05/04 15:31:51;;;;;;;10.13;3.30;;;;;;;;;;5034111;28;20543;-50
2022/05/04 15:34:17;;;;;;;15.70;3.78;;;;;;;;;;5035108;28;20394;-53